| time (UTC) | temp F | wind direction | speed MPH | gust MPH | rain 1hr in | rain 24hr in | rain mn in | humidity % | barometer mb |
| 20260831110023 | 44 | 221 | 5.0 | 10.0 | 0.00 | 0.00 | 0.00 | 83 | 1006.5 |
| 20260831104529 | 44 | 121 | 2.0 | 8.0 | 0.00 | 0.00 | 0.00 | 82 | 1006.4 |
| 20260831103023 | 44 | 236 | 7.0 | 11.0 | 0.00 | 0.00 | 0.00 | 82 | 1006.4 |
| 20260831101518 | 44 | 231 | 3.0 | 7.0 | 0.00 | 0.00 | 0.00 | 84 | 1006.4 |
| 20260831100016 | 44 | 243 | 1.0 | 5.0 | 0.00 | 0.00 | 0.00 | 84 | 1006.3 |
| 20260831094527 | 44 | 114 | 1.0 | 16.0 | 0.00 | 0.00 | 0.00 | 82 | 1005.9 |
| 20260831093020 | 44 | 211 | 3.0 | 15.0 | 0.00 | 0.00 | 0.00 | 82 | 1005.6 |
| 20260831091519 | 44 | 220 | 7.0 | 16.0 | 0.00 | 0.00 | 0.00 | 83 | 1005.4 |
| 20260831090010 | 44 | 214 | 10.0 | 24.0 | 0.00 | 0.00 | 0.00 | 84 | 1005.1 |
| 20260831084520 | 45 | 152 | 11.0 | 20.0 | 0.00 | 0.00 | 0.00 | 85 | 1004.7 |
| 20260831083108 | 46 | 201 | 11.0 | 23.0 | 0.00 | 0.00 | 0.00 | 84 | 1004.4 |
| 20260831081525 | 47 | 228 | 7.0 | 17.0 | 0.00 | 0.00 | 0.00 | 81 | 1004.1 |
| 20260831080121 | 47 | 218 | 5.0 | 12.0 | 0.00 | 0.00 | 0.00 | 80 | 1003.6 |
| 20260831074556 | 47 | 227 | 6.0 | 14.0 | 0.00 | 0.00 | 0.00 | 80 | 1003.2 |
| 20260831073054 | 47 | 191 | 7.0 | 15.0 | 0.00 | 0.00 | 0.00 | 81 | 1002.6 |
| 20260831071553 | 47 | 237 | 4.0 | 14.0 | 0.00 | 0.00 | 0.00 | 82 | 1002.1 |
| 20260831070045 | 48 | 230 | 5.0 | 12.0 | 0.00 | 0.00 | 0.00 | 80 | 1001.6 |
| 20260831064550 | 48 | 249 | 3.0 | 11.0 | 0.00 | 0.00 | 0.00 | 79 | 1001.1 |
| 20260831063053 | 49 | 245 | 6.0 | 16.0 | 0.00 | 0.00 | 0.00 | 79 | 1000.8 |
| 20260831061544 | 50 | 253 | 5.0 | 18.0 | 0.00 | 0.00 | 0.00 | 77 | 1000.3 |
| 20260831060043 | 52 | 227 | 15.0 | 23.0 | 0.00 | 0.00 | 0.00 | 72 | 999.9 |
| 20260831054541 | 57 | 229 | 14.0 | 23.0 | 0.00 | 0.00 | 0.00 | 61 | 999.3 |
| 20260831053053 | 58 | 245 | 18.0 | 26.0 | 0.00 | 0.00 | 0.00 | 59 | 998.9 |
| 20260831051542 | 59 | 234 | 23.0 | 39.0 | 0.00 | 0.00 | 0.00 | 59 | 998.8 |
| 20260831050039 | 60 | 294 | 26.0 | 40.0 | 0.00 | 0.00 | 0.00 | 50 | 998.3 |
| 20260831044539 | 60 | 261 | 22.0 | 29.0 | 0.00 | 0.00 | 0.00 | 57 | 997.9 |
| 20260831043040 | 60 | 295 | 19.0 | 30.0 | 0.00 | 0.00 | 0.00 | 59 | 997.9 |
| 20260831041540 | 60 | 314 | 22.0 | 30.0 | 0.00 | 0.00 | 0.00 | 63 | 997.5 |
| 20260831040041 | 59 | 309 | 22.0 | 31.0 | 0.00 | 0.00 | 0.00 | 62 | 997.6 |
| 20260831034536 | 60 | 320 | 25.0 | 36.0 | 0.00 | 0.00 | 0.00 | 63 | 997.5 |
| 20260831033036 | 60 | 299 | 22.0 | 30.0 | 0.00 | 0.00 | 0.00 | 63 | 997.5 |
| 20260831031534 | 59 | 344 | 16.0 | 36.0 | 0.00 | 0.00 | 0.00 | 69 | 997.4 |
| 20260831030043 | 59 | 336 | 19.0 | 27.0 | 0.00 | 0.00 | 0.00 | 68 | 997.5 |
| 20260831024536 | 60 | 293 | 22.0 | 32.0 | 0.00 | 0.00 | 0.00 | 56 | 997.4 |
| 20260831023031 | 60 | 332 | 22.0 | 29.0 | 0.00 | 0.00 | 0.00 | 60 | 997.4 |
| 20260831021530 | 59 | 316 | 22.0 | 31.0 | 0.00 | 0.00 | 0.00 | 65 | 997.5 |
| 20260831020031 | 59 | 318 | 18.0 | 25.0 | 0.00 | 0.00 | 0.00 | 69 | 997.4 |
| 20260831014534 | 59 | 310 | 18.0 | 38.0 | 0.00 | 0.00 | 0.00 | 66 | 997.2 |
| 20260831013028 | 59 | 29 | 29.0 | 43.0 | 0.00 | 0.00 | 0.00 | 65 | 997.2 |
| 20260831011526 | 58 | 22 | 25.0 | 42.0 | 0.00 | 0.00 | 0.00 | 67 | 997.5 |
| 20260831010058 | 59 | 2 | 29.0 | 43.0 | 0.00 | 0.00 | 0.00 | 66 | 997.7 |
| 20260831004547 | 59 | 3 | 26.0 | 39.0 | 0.00 | 0.00 | 0.00 | 67 | 997.8 |
| 20260831003049 | 59 | 17 | 22.0 | 38.0 | 0.00 | 0.00 | 0.00 | 65 | 998.1 |
| 20260831001543 | 59 | 360 | 28.0 | 39.0 | 0.00 | 0.00 | 0.00 | 65 | 998.2 |
| 20260831000043 | 59 | 346 | 24.0 | 39.0 | 0.00 | 0.00 | 0.00 | 63 | 998.3 |
| 20260830234545 | 58 | 356 | 25.0 | 38.0 | 0.00 | 0.00 | 0.00 | 64 | 998.6 |
| 20260830233045 | 58 | 350 | 23.0 | 38.0 | 0.00 | 0.00 | 0.00 | 65 | 998.5 |
| 20260830231541 | 58 | 4 | 24.0 | 35.0 | 0.00 | 0.00 | 0.00 | 63 | 998.6 |
| 20260830230039 | 59 | 10 | 22.0 | 31.0 | 0.00 | 0.00 | 0.00 | 64 | 998.8 |
| 20260830224539 | 59 | 350 | 23.0 | 33.0 | 0.00 | 0.00 | 0.00 | 61 | 999.0 |
| 20260830223039 | 59 | 345 | 22.0 | 37.0 | 0.00 | 0.00 | 0.00 | 60 | 998.5 |
| 20260830221538 | 58 | 339 | 22.0 | 31.0 | 0.00 | 0.00 | 0.00 | 63 | 998.8 |
| 20260830220034 | 58 | 342 | 20.0 | 31.0 | 0.00 | 0.00 | 0.00 | 67 | 999.1 |
| 20260830214532 | 57 | 339 | 20.0 | 33.0 | 0.00 | 0.00 | 0.00 | 69 | 999.0 |
| 20260830213032 | 57 | 3 | 19.0 | 33.0 | 0.00 | 0.00 | 0.00 | 74 | 999.2 |
| 20260830211530 | 57 | 360 | 19.0 | 36.0 | 0.00 | 0.00 | 0.00 | 73 | 999.1 |
| 20260830210034 | 56 | 340 | 22.0 | 35.0 | 0.00 | 0.00 | 0.00 | 75 | 999.0 |
| 20260830204530 | 56 | 7 | 16.0 | 27.0 | 0.00 | 0.00 | 0.00 | 80 | 999.2 |
| 20260830203030 | 56 | 15 | 20.0 | 32.0 | 0.00 | 0.00 | 0.00 | 81 | 999.1 |
| 20260830201536 | 56 | 7 | 22.0 | 39.0 | 0.00 | 0.00 | 0.00 | 78 | 999.1 |
| 20260830200029 | 56 | 344 | 16.0 | 33.0 | 0.00 | 0.00 | 0.00 | 78 | 999.4 |
| 20260830194529 | 56 | 344 | 20.0 | 34.0 | 0.00 | 0.00 | 0.00 | 78 | 999.0 |
| 20260830193028 | 56 | 356 | 23.0 | 36.0 | 0.00 | 0.00 | 0.00 | 77 | 999.2 |
| 20260830191528 | 56 | 7 | 21.0 | 39.0 | 0.00 | 0.00 | 0.00 | 77 | 999.2 |
| 20260830190025 | 55 | 354 | 21.0 | 35.0 | 0.00 | 0.00 | 0.00 | 78 | 999.3 |
| 20260830184527 | 55 | 353 | 25.0 | 43.0 | 0.00 | 0.00 | 0.00 | 75 | 999.7 |
| 20260830183034 | 55 | 6 | 29.0 | 43.0 | 0.00 | 0.00 | 0.00 | 72 | 999.3 |
| 20260830181524 | 56 | 342 | 29.0 | 39.0 | 0.00 | 0.00 | 0.00 | 66 | 999.4 |
| 20260830180032 | 56 | 3 | 23.0 | 31.0 | 0.00 | 0.00 | 0.00 | 67 | 999.9 |
| 20260830174526 | 56 | 29 | 20.0 | 28.0 | 0.00 | 0.00 | 0.00 | 69 | 1000.2 |
| 20260830173020 | 55 | 341 | 17.0 | 26.0 | 0.00 | 0.00 | 0.00 | 67 | 1000.2 |
| 20260830171522 | 55 | 24 | 14.0 | 22.0 | 0.00 | 0.00 | 0.00 | 73 | 1000.4 |
| 20260830170022 | 55 | 22 | 17.0 | 32.0 | 0.00 | 0.00 | 0.00 | 75 | 1000.4 |
| 20260830164519 | 55 | 360 | 23.0 | 32.0 | 0.00 | 0.00 | 0.00 | 73 | 1000.0 |
| 20260830163033 | 55 | 5 | 15.0 | 24.0 | 0.00 | 0.00 | 0.00 | 68 | 999.7 |
| 20260830161515 | 56 | 19 | 17.0 | 31.0 | 0.00 | 0.00 | 0.00 | 65 | 1000.0 |
| 20260830160034 | 56 | 327 | 21.0 | 35.0 | 0.00 | 0.00 | 0.00 | 67 | 1000.0 |
| 20260830153047 | 55 | 344 | 22.0 | 30.0 | 0.00 | 0.00 | 0.00 | 69 | 1000.2 |
| 20260830151547 | 56 | 330 | 22.0 | 34.0 | 0.00 | 0.00 | 0.00 | 66 | 1000.1 |
| 20260830150046 | 56 | 326 | 23.0 | 34.0 | 0.00 | 0.00 | 0.00 | 63 | 1000.1 |
| 20260830144646 | 57 | 310 | 23.0 | 35.0 | 0.00 | 0.00 | 0.00 | 63 | 1000.3 |
| 20260830143051 | 56 | 306 | 22.0 | 32.0 | 0.00 | 0.00 | 0.00 | 64 | 1000.3 |
| 20260830141545 | 57 | 303 | 26.0 | 34.0 | 0.00 | 0.00 | 0.00 | 64 | 1000.3 |
| 20260830140049 | 57 | 318 | 24.0 | 32.0 | 0.00 | 0.00 | 0.00 | 66 | 1000.1 |
| 20260830134642 | 57 | 320 | 21.0 | 28.0 | 0.00 | 0.00 | 0.00 | 68 | 1000.2 |
| 20260830133043 | 57 | 333 | 18.0 | 28.0 | 0.00 | 0.00 | 0.00 | 67 | 1000.1 |
| 20260830131536 | 52 | 310 | 5.0 | 10.0 | 0.00 | 0.00 | 0.00 | 77 | 1000.1 |
| 20260830130049 | 51 | 7 | 2.0 | 11.0 | 0.00 | 0.00 | 0.00 | 77 | 1000.1 |
| 20260830124632 | 48 | 127 | 2.0 | 4.0 | 0.00 | 0.00 | 0.00 | 81 | 1000.2 |
| 20260830123041 | 49 | 140 | 2.0 | 5.0 | 0.00 | 0.00 | 0.00 | 80 | 1000.4 |
| 20260830121538 | 50 | 85 | 0.0 | 2.0 | 0.00 | 0.00 | 0.00 | 78 | 1000.5 |
| 20260830120026 | 50 | 128 | 2.0 | 4.0 | 0.00 | 0.00 | 0.00 | 77 | 1000.4 |
| 20260830114624 | 50 | 121 | 1.0 | 4.0 | 0.00 | 0.00 | 0.00 | 77 | 1000.5 |
| 20260830113022 | 51 | 185 | 2.0 | 5.0 | 0.00 | 0.00 | 0.00 | 77 | 1000.4 |
| 20260830111518 | 51 | 83 | 2.0 | 6.0 | 0.00 | 0.00 | 0.00 | 76 | 1000.2 |